createdAt,value
2023-03-01T00:01:22.195Z,87.20
2023-03-01T00:03:49.162Z,86.90
2023-03-01T00:06:16.087Z,87.00
2023-03-01T00:08:43.037Z,86.70
2023-03-01T00:11:17.856Z,87.00
2023-03-01T00:13:45.932Z,86.50
2023-03-01T00:16:15.477Z,87.00
2023-03-01T00:18:42.196Z,86.90
2023-03-01T00:21:08.817Z,86.80
2023-03-01T00:23:36.532Z,86.30
2023-03-01T00:26:07.275Z,86.30
2023-03-01T00:28:34.066Z,87.00
2023-03-01T00:31:21.931Z,86.90
2023-03-01T00:33:48.519Z,86.50
2023-03-01T00:36:16.577Z,86.70
2023-03-01T00:38:45.595Z,86.80
2023-03-01T00:41:16.120Z,86.60
2023-03-01T00:43:43.379Z,86.90
2023-03-01T00:46:13.201Z,86.50
2023-03-01T00:48:40.406Z,86.20
2023-03-01T00:51:18.413Z,86.40
2023-03-01T00:53:46.035Z,86.60
2023-03-01T00:56:14.341Z,86.50
2023-03-01T00:58:41.311Z,86.80
2023-03-01T01:01:18.635Z,86.70
2023-03-01T01:03:46.078Z,86.90
2023-03-01T01:06:21.880Z,86.90
2023-03-01T01:08:49.846Z,86.60
2023-03-01T01:11:17.388Z,87.00
2023-03-01T01:13:45.993Z,86.60
2023-03-01T01:16:13.221Z,86.90
2023-03-01T01:18:39.893Z,86.90
2023-03-01T01:21:15.386Z,87.00
2023-03-01T01:23:43.183Z,87.00
2023-03-01T01:26:22.447Z,87.20
2023-03-01T01:28:49.658Z,86.90
2023-03-01T01:31:16.852Z,87.00
2023-03-01T01:33:43.493Z,87.30
2023-03-01T01:36:10.354Z,86.90
2023-03-01T01:38:38.601Z,87.30
2023-03-01T01:41:06.414Z,87.20
2023-03-01T01:43:37.066Z,87.50
2023-03-01T01:46:24.323Z,87.30
2023-03-01T01:48:56.109Z,87.20
2023-03-01T01:51:28.695Z,87.30
2023-03-01T01:53:59.970Z,87.40
2023-03-01T01:56:29.984Z,87.10
2023-03-01T01:58:57.202Z,87.30
2023-03-01T02:01:23.731Z,87.50
2023-03-01T02:03:50.730Z,87.70
2023-03-01T02:06:24.212Z,87.50
2023-03-01T02:08:52.806Z,87.30
2023-03-01T02:11:19.932Z,87.50
2023-03-01T02:13:48.469Z,87.40
2023-03-01T02:16:16.921Z,87.60
2023-03-01T02:18:45.008Z,87.60
2023-03-01T02:21:20.292Z,87.10
2023-03-01T02:23:47.056Z,87.10
2023-03-01T02:26:32.412Z,87.40
2023-03-01T02:28:59.673Z,87.30
2023-03-01T02:31:44.568Z,87.10
2023-03-01T02:34:18.006Z,88.00
2023-03-01T02:36:58.320Z,87.00
2023-03-01T02:39:35.094Z,86.90
2023-03-01T02:42:03.600Z,87.00
2023-03-01T02:44:30.307Z,87.40
2023-03-01T02:46:58.471Z,87.20
2023-03-01T02:49:31.577Z,87.20
2023-03-01T02:52:07.044Z,87.20
2023-03-01T02:54:52.345Z,87.20
2023-03-01T02:57:19.666Z,87.00
2023-03-01T02:59:46.264Z,87.10
2023-03-01T03:02:39.693Z,87.40
2023-03-01T03:05:13.046Z,87.40
2023-03-01T03:07:42.535Z,87.50
2023-03-01T03:10:33.386Z,87.20
2023-03-01T03:13:06.409Z,87.30
2023-03-01T03:15:36.811Z,87.70
2023-03-01T03:18:06.669Z,87.30
2023-03-01T03:20:34.338Z,87.40
2023-03-01T03:23:01.006Z,87.60
2023-03-01T03:25:29.250Z,87.80
2023-03-01T03:27:59.741Z,87.30
2023-03-01T03:30:29.419Z,87.30
2023-03-01T03:32:56.520Z,87.00
2023-03-01T03:35:31.135Z,87.20
2023-03-01T03:38:06.892Z,87.20
2023-03-01T03:40:33.458Z,87.40
2023-03-01T03:43:00.035Z,87.40
2023-03-01T03:45:26.716Z,87.20
2023-03-01T03:47:53.546Z,87.30
2023-03-01T03:50:20.106Z,87.30
2023-03-01T03:52:46.675Z,87.20
2023-03-01T03:55:13.850Z,87.30
2023-03-01T03:57:42.148Z,87.40
2023-03-01T04:00:15.484Z,87.30
2023-03-01T04:02:46.580Z,87.50
2023-03-01T04:05:15.072Z,88.00
2023-03-01T04:07:43.033Z,87.30
2023-03-01T04:10:13.360Z,87.30
2023-03-01T04:12:39.868Z,87.00
2023-03-01T04:15:14.023Z,87.20
2023-03-01T04:17:45.174Z,87.30
2023-03-01T04:20:18.231Z,87.30
2023-03-01T04:22:48.606Z,87.50
2023-03-01T04:25:15.487Z,87.60
2023-03-01T04:27:42.088Z,87.40
2023-03-01T04:30:09.973Z,87.90
2023-03-01T04:32:36.601Z,87.40
2023-03-01T04:35:03.192Z,87.60
2023-03-01T04:37:30.624Z,87.70
2023-03-01T04:39:57.307Z,87.70
2023-03-01T04:42:24.107Z,87.90
2023-03-01T04:44:52.182Z,87.50
2023-03-01T04:47:18.699Z,87.90
2023-03-01T04:49:45.241Z,88.10
2023-03-01T04:52:11.826Z,88.10
2023-03-01T04:54:38.417Z,88.00
2023-03-01T04:57:05.229Z,88.00
2023-03-01T04:59:31.762Z,88.10
2023-03-01T05:01:58.416Z,88.50
2023-03-01T05:04:25.747Z,88.90
2023-03-01T05:06:54.359Z,88.40
2023-03-01T05:09:20.958Z,88.20
2023-03-01T05:11:47.767Z,88.30
2023-03-01T05:14:14.421Z,88.40
2023-03-01T05:16:41.018Z,88.10
2023-03-01T05:19:15.986Z,88.40
2023-03-01T05:22:02.381Z,88.20
2023-03-01T05:24:30.367Z,88.50
2023-03-01T05:26:57.053Z,88.20
2023-03-01T05:29:28.393Z,88.30
2023-03-01T05:31:57.322Z,88.30
2023-03-01T05:34:27.406Z,88.60
2023-03-01T05:36:55.139Z,88.80
2023-03-01T05:39:23.453Z,89.00
2023-03-01T05:41:53.819Z,88.70
2023-03-01T05:44:21.120Z,89.40
2023-03-01T05:46:47.983Z,89.40
2023-03-01T05:49:15.133Z,89.30
2023-03-01T05:51:42.514Z,89.10
2023-03-01T05:54:10.027Z,89.30
2023-03-01T05:56:37.686Z,89.70
2023-03-01T05:59:05.941Z,89.70
2023-03-01T06:01:36.472Z,89.80
2023-03-01T06:04:04.836Z,90.00
2023-03-01T06:06:35.521Z,89.90
2023-03-01T06:09:02.070Z,89.90
2023-03-01T06:11:28.621Z,90.00
2023-03-01T06:13:55.218Z,89.80
2023-03-01T06:16:21.773Z,90.00
2023-03-01T06:18:48.380Z,89.80
2023-03-01T06:21:15.262Z,89.60
2023-03-01T06:23:41.801Z,89.80
2023-03-01T06:26:09.709Z,89.70
2023-03-01T06:28:36.890Z,89.80
2023-03-01T06:31:03.637Z,90.00
2023-03-01T06:33:30.191Z,89.60
2023-03-01T06:35:57.429Z,90.10
2023-03-01T06:38:24.980Z,90.30
2023-03-01T06:40:55.822Z,90.20
2023-03-01T06:43:22.793Z,90.20
2023-03-01T06:45:49.299Z,90.20
2023-03-01T06:48:15.878Z,90.30
2023-03-01T06:50:42.463Z,90.20
2023-03-01T06:53:09.083Z,90.20
2023-03-01T06:55:35.601Z,90.00
2023-03-01T06:58:03.780Z,90.10
2023-03-01T07:00:30.885Z,90.10
2023-03-01T07:03:00.731Z,90.20
2023-03-01T07:05:27.259Z,90.20
2023-03-01T07:07:54.736Z,90.20
2023-03-01T07:10:21.529Z,90.20
2023-03-01T07:12:48.203Z,90.20
2023-03-01T07:15:16.269Z,90.50
2023-03-01T07:17:42.905Z,90.30
2023-03-01T07:20:10.345Z,90.30
2023-03-01T07:22:36.857Z,90.10
2023-03-01T07:25:03.471Z,90.30
2023-03-01T07:27:30.025Z,90.20
2023-03-01T07:29:56.560Z,90.30
2023-03-01T07:32:23.178Z,90.40
2023-03-01T07:34:49.811Z,90.40
2023-03-01T07:37:16.349Z,90.30
2023-03-01T07:39:43.045Z,90.20
2023-03-01T07:42:09.677Z,90.30
2023-03-01T07:44:36.196Z,90.30
2023-03-01T07:47:04.546Z,90.40
2023-03-01T07:49:31.078Z,90.30
2023-03-01T07:51:57.599Z,90.30
2023-03-01T07:54:24.197Z,90.40
2023-03-01T07:56:50.817Z,90.50
2023-03-01T07:59:17.360Z,90.50
2023-03-01T08:01:44.024Z,90.50
2023-03-01T08:04:11.339Z,90.50
2023-03-01T08:06:38.250Z,90.60
2023-03-01T08:09:05.028Z,90.60
2023-03-01T08:11:31.671Z,90.50
2023-03-01T08:13:58.340Z,90.50
2023-03-01T08:16:25.283Z,90.60
2023-03-01T08:18:51.905Z,90.50
2023-03-01T08:21:19.479Z,90.60
2023-03-01T08:23:46.482Z,90.40
2023-03-01T08:26:19.468Z,90.40
2023-03-01T08:28:47.463Z,90.40
2023-03-01T08:31:20.230Z,90.50
2023-03-01T08:33:55.829Z,90.40
2023-03-01T08:36:30.985Z,90.50
2023-03-01T08:38:58.534Z,90.40
2023-03-01T08:41:25.597Z,90.60
2023-03-01T08:43:53.644Z,90.50
2023-03-01T08:46:20.154Z,90.60
2023-03-01T08:48:46.707Z,90.50
2023-03-01T08:51:21.358Z,90.50
2023-03-01T08:53:48.349Z,90.60
2023-03-01T08:56:15.835Z,90.70
2023-03-01T08:58:49.558Z,90.60
2023-03-01T09:01:18.491Z,90.60
2023-03-01T09:03:45.449Z,90.60
2023-03-01T09:06:12.574Z,90.30
2023-03-01T09:08:41.024Z,90.30
2023-03-01T09:11:10.104Z,90.30
2023-03-01T09:13:36.906Z,90.50
2023-03-01T09:16:06.573Z,90.60
2023-03-01T09:18:33.788Z,90.60
2023-03-01T09:21:14.769Z,90.60
2023-03-01T09:23:47.726Z,90.70
2023-03-01T09:26:20.407Z,90.60
2023-03-01T09:28:47.636Z,90.40
2023-03-01T09:31:15.657Z,90.50
2023-03-01T09:33:45.804Z,90.20
2023-03-01T09:36:14.265Z,90.30
2023-03-01T09:38:40.833Z,90.50
2023-03-01T09:41:37.923Z,90.40
2023-03-01T09:44:27.567Z,90.40
2023-03-01T09:46:54.229Z,90.20
2023-03-01T09:49:29.366Z,90.20
2023-03-01T09:52:24.219Z,90.20
2023-03-01T09:54:54.281Z,90.40
2023-03-01T09:57:26.486Z,90.30
2023-03-01T10:00:05.091Z,90.40
2023-03-01T10:02:49.424Z,90.10
2023-03-01T10:05:37.715Z,89.90
2023-03-01T10:08:23.054Z,90.10
2023-03-01T10:10:50.450Z,90.00
2023-03-01T10:13:19.709Z,90.10
2023-03-01T10:15:56.205Z,90.00
2023-03-01T10:18:33.581Z,90.10
2023-03-01T10:21:02.229Z,90.20
2023-03-01T10:23:32.802Z,90.30
2023-03-01T10:26:13.370Z,90.20
2023-03-01T10:29:05.591Z,90.20
2023-03-01T10:31:52.423Z,90.20
2023-03-01T10:34:28.251Z,90.20
2023-03-01T10:37:02.388Z,90.30
2023-03-01T10:39:28.976Z,90.10
2023-03-01T10:41:58.522Z,90.00
2023-03-01T10:44:46.461Z,89.90
2023-03-01T10:47:15.671Z,89.90
2023-03-01T10:49:56.978Z,90.00
2023-03-01T10:52:38.543Z,89.70
2023-03-01T10:55:14.054Z,89.30
2023-03-01T10:57:42.827Z,89.90
2023-03-01T11:00:20.305Z,89.80
2023-03-01T11:02:56.891Z,89.30
2023-03-01T11:05:25.873Z,89.70
2023-03-01T11:07:58.356Z,89.90
2023-03-01T11:10:34.405Z,89.80
2023-03-01T11:13:21.224Z,89.80
2023-03-01T11:16:07.435Z,89.60
2023-03-01T11:18:47.030Z,89.80
2023-03-01T11:21:15.709Z,89.80
2023-03-01T11:23:46.319Z,89.70
2023-03-01T11:26:15.899Z,89.80
2023-03-01T11:28:45.585Z,89.40
2023-03-01T11:31:13.519Z,89.90
2023-03-01T11:34:02.013Z,90.00
2023-03-01T11:36:34.486Z,90.10
2023-03-01T11:39:18.957Z,89.90
2023-03-01T11:41:53.101Z,89.50
2023-03-01T11:44:29.219Z,89.20
2023-03-01T11:47:14.487Z,88.90
2023-03-01T11:49:41.066Z,89.30
2023-03-01T11:52:20.783Z,89.30
2023-03-01T11:54:56.194Z,89.30
2023-03-01T11:58:01.622Z,89.70
2023-03-01T12:00:53.040Z,88.80
2023-03-01T12:03:40.942Z,88.70
2023-03-01T12:06:33.619Z,88.40
2023-03-01T12:09:22.494Z,88.30
2023-03-01T12:12:11.451Z,88.50
2023-03-01T12:15:00.774Z,88.60
2023-03-01T12:17:56.618Z,88.40
2023-03-01T12:20:47.011Z,88.60
2023-03-01T12:23:49.745Z,88.30
2023-03-01T12:26:34.959Z,88.50
2023-03-01T12:29:04.464Z,88.70
2023-03-01T12:31:39.101Z,88.70
2023-03-01T12:34:20.688Z,88.20
2023-03-01T12:36:50.235Z,88.10
2023-03-01T12:39:41.168Z,88.10
2023-03-01T12:42:52.818Z,88.10
2023-03-01T12:45:31.303Z,88.00
2023-03-01T12:48:00.830Z,88.00
2023-03-01T12:50:40.367Z,87.90
2023-03-01T12:53:23.736Z,88.00
2023-03-01T12:55:51.408Z,87.80
2023-03-01T12:58:21.943Z,88.40
2023-03-01T13:01:21.902Z,88.20
2023-03-01T13:04:34.375Z,88.90
2023-03-01T13:07:19.718Z,89.00
2023-03-01T13:10:11.209Z,88.80
2023-03-01T13:12:49.958Z,89.10
2023-03-01T13:15:33.431Z,88.70
2023-03-01T13:18:26.287Z,88.50
2023-03-01T13:21:01.220Z,88.40
2023-03-01T13:23:39.551Z,87.90
2023-03-01T13:26:18.093Z,87.80
2023-03-01T13:28:53.341Z,87.60
2023-03-01T13:31:19.846Z,87.60
2023-03-01T13:33:56.883Z,87.60
2023-03-01T13:36:29.942Z,87.70
2023-03-01T13:39:01.333Z,87.30
2023-03-01T13:41:40.097Z,87.50
2023-03-01T13:44:32.560Z,87.40
2023-03-01T13:47:14.835Z,87.10
2023-03-01T13:49:54.489Z,87.30
2023-03-01T13:52:33.734Z,87.00
2023-03-01T13:55:02.679Z,87.20
2023-03-01T13:57:35.400Z,86.80
2023-03-01T14:00:02.054Z,87.20
2023-03-01T14:02:28.749Z,87.00
2023-03-01T14:05:02.276Z,87.00
2023-03-01T14:07:32.592Z,87.10
2023-03-01T14:10:06.924Z,86.50
2023-03-01T14:13:08.323Z,86.80
2023-03-01T14:16:02.501Z,87.20
2023-03-01T14:18:41.755Z,87.10
2023-03-01T14:21:09.435Z,86.90
2023-03-01T14:23:39.361Z,87.00
2023-03-01T14:26:06.056Z,87.30
2023-03-01T14:28:35.240Z,86.80
2023-03-01T14:31:02.893Z,86.90
2023-03-01T14:33:34.313Z,86.90
2023-03-01T14:36:00.912Z,87.20
2023-03-01T14:38:39.177Z,87.30
2023-03-01T14:41:20.795Z,86.80
2023-03-01T14:44:00.669Z,87.00
2023-03-01T14:46:34.780Z,86.80
2023-03-01T14:49:10.327Z,86.80
2023-03-01T14:51:42.095Z,86.50
2023-03-01T14:54:26.595Z,86.60
2023-03-01T14:56:54.811Z,86.40
2023-03-01T14:59:24.279Z,86.90
2023-03-01T15:01:53.111Z,86.60
2023-03-01T15:04:20.911Z,86.30
2023-03-01T15:06:48.691Z,85.70
2023-03-01T15:09:17.729Z,85.50
2023-03-01T15:11:45.403Z,85.80
2023-03-01T15:14:49.539Z,86.10
2023-03-01T15:17:39.562Z,85.80
2023-03-01T15:20:17.622Z,85.70
2023-03-01T15:22:50.533Z,85.90
2023-03-01T15:25:19.625Z,86.60
2023-03-01T15:27:50.981Z,86.80
2023-03-01T15:30:28.160Z,86.50
2023-03-01T15:33:20.263Z,85.90
2023-03-01T15:35:49.492Z,86.00
2023-03-01T15:38:27.641Z,85.60
2023-03-01T15:40:54.972Z,85.70
2023-03-01T15:43:45.627Z,85.80
2023-03-01T15:46:33.274Z,85.70
2023-03-01T15:49:03.771Z,86.30
2023-03-01T15:51:32.279Z,85.60
2023-03-01T15:54:01.457Z,86.00
2023-03-01T15:56:28.006Z,85.50
2023-03-01T15:58:59.164Z,85.50
2023-03-01T16:01:25.943Z,85.70
2023-03-01T16:03:52.858Z,85.60
2023-03-01T16:06:19.411Z,85.50
2023-03-01T16:08:45.948Z,85.70
2023-03-01T16:11:16.953Z,85.60
2023-03-01T16:13:44.036Z,85.70
2023-03-01T16:16:17.140Z,86.40
2023-03-01T16:18:46.099Z,86.00
2023-03-01T16:21:24.419Z,85.50
2023-03-01T16:23:51.986Z,85.80
2023-03-01T16:26:21.364Z,86.10
2023-03-01T16:28:48.404Z,85.90
2023-03-01T16:31:19.732Z,86.00
2023-03-01T16:33:50.431Z,85.90
2023-03-01T16:36:19.288Z,86.20
2023-03-01T16:38:46.216Z,86.10
2023-03-01T16:41:15.260Z,85.90
2023-03-01T16:43:43.067Z,85.70
2023-03-01T16:46:15.130Z,86.00
2023-03-01T16:48:42.172Z,86.20
2023-03-01T16:51:09.616Z,85.50
2023-03-01T16:53:38.424Z,85.50
2023-03-01T16:56:08.535Z,85.20
2023-03-01T16:58:36.218Z,85.70
2023-03-01T17:01:14.418Z,85.40
2023-03-01T17:03:41.356Z,86.00
2023-03-01T17:06:12.050Z,85.80
2023-03-01T17:08:39.283Z,86.00
2023-03-01T17:11:11.614Z,85.50
2023-03-01T17:13:39.179Z,85.50
2023-03-01T17:16:07.534Z,85.60
2023-03-01T17:18:34.486Z,86.20
2023-03-01T17:21:01.722Z,86.30
2023-03-01T17:23:30.216Z,86.30
2023-03-01T17:25:57.502Z,86.00
2023-03-01T17:28:25.971Z,85.80
2023-03-01T17:30:52.952Z,86.10
2023-03-01T17:33:21.098Z,86.40
2023-03-01T17:35:48.302Z,86.20
2023-03-01T17:38:15.649Z,86.00
2023-03-01T17:40:43.359Z,86.20
2023-03-01T17:43:10.177Z,86.10
2023-03-01T17:45:38.177Z,86.10
2023-03-01T17:48:05.716Z,85.90
2023-03-01T17:50:32.967Z,86.00
2023-03-01T17:52:59.995Z,86.10
2023-03-01T17:55:28.847Z,86.40
2023-03-01T17:57:55.349Z,85.90
2023-03-01T18:00:22.118Z,86.30
2023-03-01T18:02:48.723Z,86.40
2023-03-01T18:05:15.443Z,86.40
2023-03-01T18:07:42.035Z,86.30
2023-03-01T18:10:09.559Z,86.30
2023-03-01T18:12:36.108Z,86.40
2023-03-01T18:15:02.739Z,86.20
2023-03-01T18:17:29.286Z,86.40
2023-03-01T18:19:57.068Z,86.20
2023-03-01T18:22:23.640Z,86.20
2023-03-01T18:24:50.201Z,86.00
2023-03-01T18:27:16.752Z,86.70
2023-03-01T18:29:43.678Z,86.30
2023-03-01T18:32:10.348Z,86.30
2023-03-01T18:34:36.993Z,86.10
2023-03-01T18:37:09.535Z,86.40
2023-03-01T18:39:37.262Z,86.20
2023-03-01T18:42:03.990Z,86.30
2023-03-01T18:44:30.621Z,86.50
2023-03-01T18:46:58.200Z,86.90
2023-03-01T18:49:26.164Z,86.10
2023-03-01T18:51:53.346Z,86.20
2023-03-01T18:54:19.871Z,86.70
2023-03-01T18:56:46.628Z,86.20
2023-03-01T18:59:13.154Z,86.40
2023-03-01T19:01:40.103Z,86.30
2023-03-01T19:04:08.645Z,86.40
2023-03-01T19:06:35.718Z,86.40
2023-03-01T19:09:02.801Z,86.40
2023-03-01T19:11:33.042Z,86.30
2023-03-01T19:14:00.420Z,86.30
2023-03-01T19:16:29.392Z,86.30
2023-03-01T19:18:59.485Z,86.20
2023-03-01T19:21:28.359Z,86.10
2023-03-01T19:23:55.900Z,86.50
2023-03-01T19:26:27.397Z,86.00
2023-03-01T19:28:55.424Z,86.20
2023-03-01T19:31:25.842Z,86.20
2023-03-01T19:33:59.451Z,86.10
2023-03-01T19:36:33.194Z,86.10
2023-03-01T19:39:01.506Z,86.10
2023-03-01T19:41:28.378Z,86.40
2023-03-01T19:43:55.185Z,86.40
2023-03-01T19:46:21.960Z,86.30
2023-03-01T19:48:50.131Z,86.20
2023-03-01T19:51:16.826Z,86.40
2023-03-01T19:53:43.457Z,86.70
2023-03-01T19:56:10.118Z,86.80
2023-03-01T19:58:38.176Z,86.60
2023-03-01T20:01:05.031Z,86.30
2023-03-01T20:03:34.365Z,86.60
2023-03-01T20:06:07.462Z,86.20
2023-03-01T20:08:34.166Z,86.10
2023-03-01T20:11:05.247Z,86.50
2023-03-01T20:13:32.027Z,86.70
2023-03-01T20:15:58.672Z,86.40
2023-03-01T20:18:25.914Z,86.70
2023-03-01T20:20:52.616Z,86.50
2023-03-01T20:23:20.111Z,86.60
2023-03-01T20:25:50.490Z,86.80
2023-03-01T20:28:19.124Z,87.00
2023-03-01T20:30:45.927Z,86.60
2023-03-01T20:33:12.655Z,86.50
2023-03-01T20:35:42.791Z,86.70
2023-03-01T20:38:09.437Z,86.60
2023-03-01T20:40:36.712Z,86.80
2023-03-01T20:43:03.709Z,87.30
2023-03-01T20:45:30.567Z,87.00
2023-03-01T20:47:57.095Z,87.10
2023-03-01T20:50:23.628Z,87.20
2023-03-01T20:52:50.150Z,87.30
2023-03-01T20:55:16.713Z,87.10
2023-03-01T20:57:43.547Z,87.50
2023-03-01T21:00:10.735Z,88.00
2023-03-01T21:02:38.670Z,87.60
2023-03-01T21:05:06.101Z,87.40
2023-03-01T21:07:32.652Z,87.50
2023-03-01T21:09:59.220Z,87.10
2023-03-01T21:12:25.781Z,87.30
2023-03-01T21:14:52.401Z,87.70
2023-03-01T21:17:19.055Z,87.30
2023-03-01T21:19:45.895Z,87.40
2023-03-01T21:22:14.546Z,87.60
2023-03-01T21:24:41.867Z,87.70
2023-03-01T21:27:09.524Z,87.40
2023-03-01T21:29:44.683Z,88.10
2023-03-01T21:32:13.227Z,87.70
2023-03-01T21:34:41.347Z,87.90
2023-03-01T21:37:10.253Z,88.10
2023-03-01T21:39:37.629Z,87.90
2023-03-01T21:42:05.532Z,87.90
2023-03-01T21:44:32.908Z,87.90
2023-03-01T21:46:59.564Z,88.00
2023-03-01T21:49:26.261Z,88.10
2023-03-01T21:51:53.037Z,87.90
2023-03-01T21:54:20.137Z,87.60
2023-03-01T21:56:48.500Z,87.60
2023-03-01T21:59:18.141Z,87.50
2023-03-01T22:01:45.231Z,88.10
2023-03-01T22:04:13.010Z,87.60
2023-03-01T22:06:42.391Z,87.60
2023-03-01T22:09:18.422Z,87.50
2023-03-01T22:11:48.783Z,87.90
2023-03-01T22:14:16.913Z,87.70
2023-03-01T22:16:45.543Z,87.80
2023-03-01T22:19:14.798Z,87.60
2023-03-01T22:21:44.345Z,88.10
2023-03-01T22:24:11.369Z,87.60
2023-03-01T22:26:41.527Z,87.60
2023-03-01T22:29:11.619Z,88.10
2023-03-01T22:31:39.124Z,88.00
2023-03-01T22:34:06.083Z,87.70
2023-03-01T22:36:34.005Z,87.60
2023-03-01T22:39:01.816Z,87.90
2023-03-01T22:41:30.430Z,88.00
2023-03-01T22:43:57.235Z,88.10
2023-03-01T22:46:24.437Z,87.90
2023-03-01T22:48:51.151Z,88.00
2023-03-01T22:51:27.575Z,87.90
2023-03-01T22:53:55.073Z,87.80
2023-03-01T22:56:24.555Z,87.90
2023-03-01T22:58:51.409Z,87.90
2023-03-01T23:01:21.470Z,88.10
2023-03-01T23:03:48.457Z,88.30
2023-03-01T23:06:16.696Z,88.20
2023-03-01T23:08:43.768Z,87.90
2023-03-01T23:11:13.642Z,87.80
2023-03-01T23:13:41.167Z,87.80
2023-03-01T23:16:08.576Z,87.90
2023-03-01T23:18:35.233Z,88.10
2023-03-01T23:21:11.742Z,87.80
2023-03-01T23:23:38.364Z,87.60
2023-03-01T23:26:05.732Z,87.80
2023-03-01T23:28:33.078Z,87.80
2023-03-01T23:31:02.581Z,87.40
2023-03-01T23:33:37.549Z,87.60
2023-03-01T23:36:05.472Z,87.80
2023-03-01T23:38:32.051Z,88.00
2023-03-01T23:40:58.790Z,87.90
2023-03-01T23:43:25.349Z,87.80
2023-03-01T23:45:55.045Z,87.70
2023-03-01T23:48:21.762Z,88.00
2023-03-01T23:50:48.811Z,88.20
2023-03-01T23:53:20.883Z,88.30
2023-03-01T23:55:53.975Z,88.50
2023-03-01T23:58:28.486Z,88.40
